Time;durP1;ratioP1;P1;durP2;ratioP2;P2;SDS_P1;SDS_P2;PMS_P1;PMS_P2;Temp;Humidity;BMP_temperature;BMP_pressure;BME280_temperature;BME280_humidity;BME280_pressure;Samples;Min_cycle;Max_cycle;Signal;HPM_P1;HPM_P2
2023/06/13 00:01:36;;;;;;;13.77;6.18;;;;;;;;;;4993157;28;20022;-71
2023/06/13 00:04:03;;;;;;;12.68;5.72;;;;;;;;;;4992411;28;20527;-71
2023/06/13 00:06:30;;;;;;;12.35;5.63;;;;;;;;;;4994026;28;20018;-71
2023/06/13 00:08:57;;;;;;;8.68;5.82;;;;;;;;;;4994521;28;20030;-71
2023/06/13 00:11:22;;;;;;;12.60;5.65;;;;;;;;;;4994920;28;20053;-71
2023/06/13 00:13:49;;;;;;;11.02;6.28;;;;;;;;;;4994925;28;20039;-72
2023/06/13 00:16:15;;;;;;;13.20;6.97;;;;;;;;;;4994409;28;20538;-72
2023/06/13 00:18:41;;;;;;;11.55;6.88;;;;;;;;;;4994027;28;20026;-73
2023/06/13 00:21:07;;;;;;;9.77;6.88;;;;;;;;;;4992546;28;20089;-71
2023/06/13 00:23:33;;;;;;;9.73;6.63;;;;;;;;;;4993626;28;20519;-72
2023/06/13 00:25:59;;;;;;;12.60;6.88;;;;;;;;;;4993562;28;20026;-72
2023/06/13 00:28:25;;;;;;;10.55;6.15;;;;;;;;;;4993402;28;20410;-72
2023/06/13 00:30:51;;;;;;;9.50;5.93;;;;;;;;;;4995592;28;20029;-72
2023/06/13 00:33:17;;;;;;;11.18;6.97;;;;;;;;;;5008629;28;20499;-72
2023/06/13 00:35:45;;;;;;;26.10;7.65;;;;;;;;;;4989293;28;20034;-72
2023/06/13 00:38:12;;;;;;;11.02;6.60;;;;;;;;;;4987375;28;20035;-72
2023/06/13 00:40:39;;;;;;;11.85;7.38;;;;;;;;;;4986726;28;20045;-72
2023/06/13 00:43:05;;;;;;;12.30;7.50;;;;;;;;;;4989419;28;20137;-72
2023/06/13 00:45:33;;;;;;;16.55;7.95;;;;;;;;;;4989204;28;20026;-73
2023/06/13 00:48:05;;;;;;;11.48;7.28;;;;;;;;;;4990294;28;20042;-73
2023/06/13 00:50:33;;;;;;;11.32;7.35;;;;;;;;;;4990217;28;20408;-72
2023/06/13 00:53:04;;;;;;;10.48;7.20;;;;;;;;;;4990195;28;20096;-72
2023/06/13 00:55:31;;;;;;;11.25;6.57;;;;;;;;;;4990917;28;20501;-72
2023/06/13 00:57:58;;;;;;;15.40;6.53;;;;;;;;;;4984822;28;20034;-71
2023/06/13 01:00:26;;;;;;;11.40;6.43;;;;;;;;;;4982655;28;20421;-72
2023/06/13 01:02:59;;;;;;;12.43;6.85;;;;;;;;;;4999153;28;20060;-72
2023/06/13 01:05:28;;;;;;;9.57;7.05;;;;;;;;;;5011402;28;20570;-72
2023/06/13 01:08:16;;;;;;;13.05;7.30;;;;;;;;;;4975327;28;20065;-71
2023/06/13 01:10:47;;;;;;;9.98;6.93;;;;;;;;;;4992280;28;20113;-71
2023/06/13 01:13:28;;;;;;;14.55;7.13;;;;;;;;;;4991484;28;20121;-73
2023/06/13 01:16:00;;;;;;;10.95;6.75;;;;;;;;;;4992753;28;20082;-72
2023/06/13 01:18:30;;;;;;;13.27;7.20;;;;;;;;;;4992652;28;20445;-72
2023/06/13 01:21:00;;;;;;;13.73;6.93;;;;;;;;;;4990813;28;20157;-71
2023/06/13 01:23:36;;;;;;;11.95;7.25;;;;;;;;;;4991431;28;20057;-73
2023/06/13 01:26:35;;;;;;;8.27;6.63;;;;;;;;;;4990800;28;20116;-72
2023/06/13 01:29:03;;;;;;;16.25;7.45;;;;;;;;;;4973014;28;20034;-70
2023/06/13 01:31:31;;;;;;;11.77;6.32;;;;;;;;;;4982059;28;20035;-72
2023/06/13 01:33:58;;;;;;;11.88;7.00;;;;;;;;;;4992299;28;20085;-72
2023/06/13 01:36:24;;;;;;;9.85;6.70;;;;;;;;;;4986073;28;20077;-73
2023/06/13 01:38:50;;;;;;;10.73;6.38;;;;;;;;;;4993542;28;20022;-71
2023/06/13 01:41:16;;;;;;;10.50;7.43;;;;;;;;;;4995523;28;20029;-74
2023/06/13 01:43:41;;;;;;;10.07;7.43;;;;;;;;;;4990492;28;20081;-71
2023/06/13 01:46:26;;;;;;;17.20;8.40;;;;;;;;;;4984274;28;20022;-71
2023/06/13 01:49:00;;;;;;;17.73;8.75;;;;;;;;;;4991170;28;20038;-72
2023/06/13 01:51:48;;;;;;;16.15;7.45;;;;;;;;;;5003301;28;20031;-71
2023/06/13 01:54:21;;;;;;;16.25;8.15;;;;;;;;;;4990616;28;20039;-72
2023/06/13 01:56:52;;;;;;;15.05;9.55;;;;;;;;;;4991102;28;20036;-72
2023/06/13 01:59:23;;;;;;;14.35;8.98;;;;;;;;;;4990981;28;20039;-72
2023/06/13 02:01:49;;;;;;;19.83;9.77;;;;;;;;;;4990401;28;20041;-72
2023/06/13 02:04:15;;;;;;;15.52;8.13;;;;;;;;;;4992139;28;20038;-72
2023/06/13 02:06:41;;;;;;;23.15;9.02;;;;;;;;;;4992091;28;20451;-72
2023/06/13 02:09:07;;;;;;;10.45;8.35;;;;;;;;;;4990889;28;20117;-72
2023/06/13 02:11:33;;;;;;;10.98;7.43;;;;;;;;;;4992066;28;20038;-72
2023/06/13 02:13:59;;;;;;;11.88;7.72;;;;;;;;;;4992091;28;20037;-72
2023/06/13 02:16:29;;;;;;;13.02;7.90;;;;;;;;;;4990970;28;20250;-71
2023/06/13 02:18:55;;;;;;;14.25;7.82;;;;;;;;;;4992184;28;20441;-72
2023/06/13 02:21:24;;;;;;;11.63;6.85;;;;;;;;;;4990411;28;20021;-71
2023/06/13 02:23:50;;;;;;;9.68;6.30;;;;;;;;;;5000321;28;20026;-72
2023/06/13 02:26:16;;;;;;;13.20;7.45;;;;;;;;;;4994010;28;20022;-72
2023/06/13 02:28:47;;;;;;;16.50;7.40;;;;;;;;;;5010305;28;20518;-71
2023/06/13 02:31:16;;;;;;;12.95;7.63;;;;;;;;;;5007862;28;20042;-71
2023/06/13 02:33:43;;;;;;;17.17;7.40;;;;;;;;;;4974397;28;20041;-72
2023/06/13 02:36:11;;;;;;;19.50;8.93;;;;;;;;;;4992071;28;20452;-73
2023/06/13 02:38:40;;;;;;;18.52;10.13;;;;;;;;;;4990521;28;20113;-72
2023/06/13 02:41:07;;;;;;;17.85;9.15;;;;;;;;;;4991379;28;20400;-72
2023/06/13 02:43:35;;;;;;;20.15;10.48;;;;;;;;;;4992004;28;20108;-72
2023/06/13 02:46:01;;;;;;;13.90;9.40;;;;;;;;;;4993784;28;20392;-72
2023/06/13 02:48:26;;;;;;;24.13;11.35;;;;;;;;;;4993859;28;20460;-72
2023/06/13 02:50:53;;;;;;;19.85;10.38;;;;;;;;;;4990979;28;20386;-72
2023/06/13 02:53:20;;;;;;;13.07;10.43;;;;;;;;;;4994808;28;20030;-72
2023/06/13 02:55:46;;;;;;;18.45;9.70;;;;;;;;;;4993745;28;20061;-71
2023/06/13 02:58:13;;;;;;;20.42;9.57;;;;;;;;;;4995133;28;20022;-72
2023/06/13 03:00:40;;;;;;;21.23;10.13;;;;;;;;;;4994681;28;20042;-71
2023/06/13 03:03:11;;;;;;;16.67;10.38;;;;;;;;;;4993611;28;20121;-71
2023/06/13 03:05:37;;;;;;;18.40;11.63;;;;;;;;;;4993628;28;20030;-71
2023/06/13 03:08:04;;;;;;;21.45;11.68;;;;;;;;;;4993714;28;20038;-71
2023/06/13 03:10:32;;;;;;;22.05;10.77;;;;;;;;;;4993206;28;20587;-72
2023/06/13 03:12:59;;;;;;;29.10;11.45;;;;;;;;;;4977808;28;20112;-72
2023/06/13 03:15:27;;;;;;;24.67;11.90;;;;;;;;;;4975678;28;20141;-71
2023/06/13 03:17:53;;;;;;;21.55;12.05;;;;;;;;;;4993319;28;20030;-71
2023/06/13 03:20:23;;;;;;;26.40;12.02;;;;;;;;;;4992106;28;20040;-71
2023/06/13 03:22:50;;;;;;;30.17;14.00;;;;;;;;;;4993156;28;20061;-72
2023/06/13 03:25:16;;;;;;;31.92;14.32;;;;;;;;;;4988045;28;20066;-72
2023/06/13 03:27:47;;;;;;;33.60;15.25;;;;;;;;;;5009488;28;20030;-71
2023/06/13 03:30:14;;;;;;;29.80;14.73;;;;;;;;;;4992748;28;20042;-71
2023/06/13 03:32:41;;;;;;;26.85;13.65;;;;;;;;;;4993072;28;20019;-72
2023/06/13 03:35:08;;;;;;;24.83;13.50;;;;;;;;;;4992075;28;20122;-72
2023/06/13 03:37:34;;;;;;;22.70;13.93;;;;;;;;;;5001795;28;20072;-72
2023/06/13 03:40:00;;;;;;;16.35;11.68;;;;;;;;;;4993568;28;20481;-72
2023/06/13 03:42:25;;;;;;;17.40;11.45;;;;;;;;;;4992843;28;20089;-71
2023/06/13 03:44:51;;;;;;;26.70;13.57;;;;;;;;;;4992565;28;20373;-71
2023/06/13 03:47:17;;;;;;;23.50;13.25;;;;;;;;;;4991878;28;20022;-72
2023/06/13 03:49:43;;;;;;;29.00;13.38;;;;;;;;;;4993039;28;20086;-72
2023/06/13 03:52:10;;;;;;;27.50;12.77;;;;;;;;;;4992598;28;20084;-72
2023/06/13 03:54:36;;;;;;;28.00;13.95;;;;;;;;;;4991748;28;20102;-71
2023/06/13 03:57:02;;;;;;;21.67;10.90;;;;;;;;;;4989656;28;20166;-71
2023/06/13 03:59:30;;;;;;;21.73;11.02;;;;;;;;;;4992783;28;20030;-72
2023/06/13 04:01:56;;;;;;;19.02;10.95;;;;;;;;;;4998313;28;20031;-71
2023/06/13 04:04:22;;;;;;;17.52;10.38;;;;;;;;;;4994722;28;20038;-71
2023/06/13 04:06:49;;;;;;;23.52;11.38;;;;;;;;;;4977289;28;20069;-72
2023/06/13 04:09:17;;;;;;;24.88;14.38;;;;;;;;;;4993651;28;20129;-72
2023/06/13 04:11:43;;;;;;;24.50;11.77;;;;;;;;;;4992918;28;20109;-71
2023/06/13 04:14:09;;;;;;;21.48;10.57;;;;;;;;;;4993463;28;20046;-71
2023/06/13 04:16:35;;;;;;;16.08;10.35;;;;;;;;;;4993577;28;20033;-71
2023/06/13 04:19:01;;;;;;;18.02;10.50;;;;;;;;;;4993675;28;20061;-71
2023/06/13 04:21:27;;;;;;;23.15;10.80;;;;;;;;;;4994861;28;20057;-72
2023/06/13 04:23:54;;;;;;;22.40;10.32;;;;;;;;;;4992362;28;20038;-72
2023/06/13 04:26:20;;;;;;;23.35;11.43;;;;;;;;;;4991776;28;20034;-72
2023/06/13 04:28:48;;;;;;;24.20;10.85;;;;;;;;;;4992189;28;20034;-71
2023/06/13 04:31:14;;;;;;;18.13;10.00;;;;;;;;;;4991644;28;20033;-71
2023/06/13 04:33:41;;;;;;;25.23;11.40;;;;;;;;;;4991901;28;20042;-71
2023/06/13 04:36:08;;;;;;;19.63;11.57;;;;;;;;;;4994789;28;20030;-72
2023/06/13 04:38:39;;;;;;;16.27;10.50;;;;;;;;;;4993882;28;20168;-71
2023/06/13 04:41:10;;;;;;;23.48;10.82;;;;;;;;;;4992769;28;20070;-72
2023/06/13 04:43:41;;;;;;;22.33;11.35;;;;;;;;;;4993013;28;20547;-71
2023/06/13 04:46:07;;;;;;;19.67;10.65;;;;;;;;;;4991730;28;20046;-72
2023/06/13 04:48:35;;;;;;;22.58;11.45;;;;;;;;;;4988719;28;20042;-72
2023/06/13 04:51:09;;;;;;;21.23;11.93;;;;;;;;;;4992336;28;20038;-72
2023/06/13 04:53:37;;;;;;;;;;;;;;;;;;4993524;28;20042;-72
2023/06/13 04:56:04;;;;;;;22.33;11.05;;;;;;;;;;4989837;28;20017;-71
2023/06/13 04:58:30;;;;;;;31.05;12.52;;;;;;;;;;4991479;28;20034;-71
2023/06/13 05:00:58;;;;;;;29.75;13.60;;;;;;;;;;4992142;28;20542;-71
2023/06/13 05:03:25;;;;;;;25.75;12.15;;;;;;;;;;4992279;28;20518;-72
2023/06/13 05:05:51;;;;;;;21.52;10.57;;;;;;;;;;4973055;28;20035;-71
2023/06/13 05:08:19;;;;;;;18.52;10.93;;;;;;;;;;4983770;28;20197;-72
2023/06/13 05:10:45;;;;;;;22.58;10.80;;;;;;;;;;4990689;28;20034;-72
2023/06/13 05:13:11;;;;;;;22.45;11.77;;;;;;;;;;4989927;28;20030;-72
2023/06/13 05:15:42;;;;;;;28.42;14.57;;;;;;;;;;4989949;28;20030;-71
2023/06/13 05:18:12;;;;;;;22.52;15.25;;;;;;;;;;4990110;28;20045;-72
2023/06/13 05:20:42;;;;;;;28.92;15.48;;;;;;;;;;4988391;28;20523;-73
2023/06/13 05:23:08;;;;;;;21.60;14.05;;;;;;;;;;4990150;28;20416;-71
2023/06/13 05:25:35;;;;;;;22.83;13.45;;;;;;;;;;4990612;28;20084;-71
2023/06/13 05:28:02;;;;;;;30.35;14.10;;;;;;;;;;4988849;28;20424;-72
2023/06/13 05:30:28;;;;;;;22.55;13.48;;;;;;;;;;4989458;28;20053;-71
2023/06/13 05:32:54;;;;;;;26.77;13.60;;;;;;;;;;4991565;28;20058;-71
2023/06/13 05:35:20;;;;;;;21.85;12.65;;;;;;;;;;4991502;28;20035;-72
2023/06/13 05:37:48;;;;;;;32.40;14.60;;;;;;;;;;4991381;28;20408;-71
2023/06/13 05:40:16;;;;;;;18.38;12.30;;;;;;;;;;4991224;28;20485;-72
2023/06/13 05:42:41;;;;;;;24.38;11.05;;;;;;;;;;4990864;28;20141;-71
2023/06/13 05:45:08;;;;;;;19.77;11.68;;;;;;;;;;4990137;28;20458;-71
2023/06/13 05:47:35;;;;;;;19.15;10.32;;;;;;;;;;4991571;28;20034;-72
2023/06/13 05:50:01;;;;;;;21.10;10.73;;;;;;;;;;4990307;28;20117;-71
2023/06/13 05:52:27;;;;;;;26.17;11.32;;;;;;;;;;4990772;28;20019;-72
2023/06/13 05:54:54;;;;;;;19.52;10.30;;;;;;;;;;4983972;28;20022;-71
2023/06/13 05:57:20;;;;;;;13.80;9.85;;;;;;;;;;4985634;28;20026;-72
2023/06/13 05:59:46;;;;;;;15.70;9.15;;;;;;;;;;4990744;28;20050;-71
2023/06/13 06:02:13;;;;;;;14.45;8.05;;;;;;;;;;4988272;28;20066;-75
2023/06/13 06:04:39;;;;;;;18.40;8.55;;;;;;;;;;4997214;28;20045;-73
2023/06/13 06:10:52;;;;;;;15.10;7.80;;;;;;;;;;4995643;28;20049;-72
2023/06/13 06:13:17;;;;;;;13.88;8.15;;;;;;;;;;4989398;28;20030;-72
2023/06/13 06:15:43;;;;;;;14.02;8.80;;;;;;;;;;4986202;28;20039;-71
2023/06/13 06:18:09;;;;;;;16.63;10.07;;;;;;;;;;4994350;28;20062;-74
2023/06/13 06:20:34;;;;;;;13.35;10.88;;;;;;;;;;4993287;28;20109;-72
2023/06/13 06:23:01;;;;;;;14.32;10.85;;;;;;;;;;4993174;28;20407;-71
2023/06/13 06:25:26;;;;;;;12.90;8.07;;;;;;;;;;4995520;28;20022;-72
2023/06/13 06:27:52;;;;;;;15.13;7.88;;;;;;;;;;4992918;28;20110;-71
2023/06/13 06:30:18;;;;;;;18.08;8.02;;;;;;;;;;4992630;28;20037;-73
2023/06/13 06:32:44;;;;;;;12.25;7.80;;;;;;;;;;4989042;28;20400;-71
2023/06/13 06:35:10;;;;;;;14.40;8.57;;;;;;;;;;4994684;28;20022;-72
2023/06/13 06:37:37;;;;;;;12.93;6.93;;;;;;;;;;4988236;28;20409;-71
2023/06/13 06:40:03;;;;;;;12.90;7.18;;;;;;;;;;4992152;28;20460;-71
2023/06/13 06:42:29;;;;;;;10.18;5.88;;;;;;;;;;4993611;28;20038;-72
2023/06/13 06:45:06;;;;;;;8.25;6.15;;;;;;;;;;4990847;28;20030;-71
2023/06/13 06:47:34;;;;;;;10.20;5.40;;;;;;;;;;4994265;28;20467;-71
2023/06/13 06:49:59;;;;;;;11.55;5.53;;;;;;;;;;4994598;28;20137;-71
2023/06/13 06:52:25;;;;;;;11.07;5.55;;;;;;;;;;4994640;28;20092;-71
2023/06/13 06:54:51;;;;;;;10.48;6.07;;;;;;;;;;4994681;28;20022;-72
2023/06/13 06:57:17;;;;;;;9.95;5.55;;;;;;;;;;5008077;28;20068;-72
2023/06/13 06:59:42;;;;;;;17.38;6.35;;;;;;;;;;5014268;28;20026;-71
2023/06/13 07:02:08;;;;;;;10.65;6.03;;;;;;;;;;5013796;28;20392;-72
2023/06/13 07:04:35;;;;;;;18.15;6.03;;;;;;;;;;5003768;28;20025;-72
2023/06/13 07:07:01;;;;;;;9.73;5.07;;;;;;;;;;4997273;28;20571;-72
2023/06/13 07:09:27;;;;;;;14.57;5.72;;;;;;;;;;4991718;28;20129;-72
2023/06/13 07:11:57;;;;;;;11.40;5.30;;;;;;;;;;4994486;28;20357;-72
2023/06/13 07:14:26;;;;;;;10.27;5.15;;;;;;;;;;4990794;28;20477;-72
2023/06/13 07:16:54;;;;;;;11.93;5.57;;;;;;;;;;4993673;28;20026;-72
2023/06/13 07:19:21;;;;;;;14.80;5.03;;;;;;;;;;4993861;28;20081;-71
2023/06/13 07:21:47;;;;;;;8.75;4.65;;;;;;;;;;4993960;28;20041;-73
2023/06/13 07:24:13;;;;;;;11.70;4.55;;;;;;;;;;4993453;28;20026;-72
2023/06/13 07:26:40;;;;;;;6.03;4.63;;;;;;;;;;4992440;28;20497;-71
2023/06/13 07:29:08;;;;;;;9.65;5.47;;;;;;;;;;4992726;28;20519;-70
2023/06/13 07:31:33;;;;;;;11.00;5.15;;;;;;;;;;4987892;28;20015;-72
2023/06/13 07:33:59;;;;;;;8.40;4.65;;;;;;;;;;4993872;28;20180;-71
2023/06/13 07:36:27;;;;;;;10.07;4.60;;;;;;;;;;4993770;28;20026;-72
2023/06/13 07:38:53;;;;;;;12.50;4.65;;;;;;;;;;4993936;28;20197;-71
2023/06/13 07:41:19;;;;;;;9.77;4.47;;;;;;;;;;4992935;28;20204;-72
2023/06/13 07:43:44;;;;;;;9.55;4.25;;;;;;;;;;4993819;28;20030;-71
2023/06/13 07:46:10;;;;;;;8.88;3.63;;;;;;;;;;4993699;28;20435;-72
2023/06/13 07:48:36;;;;;;;8.32;3.45;;;;;;;;;;4993410;28;20112;-71
2023/06/13 07:51:02;;;;;;;5.68;3.17;;;;;;;;;;4992672;28;20022;-70
2023/06/13 07:53:28;;;;;;;7.57;3.47;;;;;;;;;;4994998;28;20045;-71
2023/06/13 07:55:55;;;;;;;4.35;3.08;;;;;;;;;;4994261;28;20033;-72
2023/06/13 07:58:21;;;;;;;8.45;3.20;;;;;;;;;;4993907;28;20042;-71
2023/06/13 08:00:47;;;;;;;4.68;3.28;;;;;;;;;;4994041;28;20132;-73
2023/06/13 08:03:12;;;;;;;3.97;2.63;;;;;;;;;;4975978;28;20124;-72
2023/06/13 08:05:38;;;;;;;5.30;2.47;;;;;;;;;;4993821;28;20066;-71
2023/06/13 08:08:04;;;;;;;5.82;2.50;;;;;;;;;;4993426;28;20146;-71
2023/06/13 08:10:31;;;;;;;6.28;2.80;;;;;;;;;;4993621;28;20026;-73
2023/06/13 08:12:57;;;;;;;5.13;2.45;;;;;;;;;;4993488;28;20030;-71
2023/06/13 08:15:22;;;;;;;5.80;2.50;;;;;;;;;;4991832;28;20474;-72
2023/06/13 08:17:48;;;;;;;5.07;2.65;;;;;;;;;;4993198;28;20065;-72
2023/06/13 08:20:15;;;;;;;5.03;2.63;;;;;;;;;;4991945;28;20389;-72
2023/06/13 08:22:41;;;;;;;6.05;3.15;;;;;;;;;;4993379;28;20045;-71
2023/06/13 08:25:08;;;;;;;5.15;2.95;;;;;;;;;;4993164;28;20018;-71
2023/06/13 08:27:38;;;;;;;8.00;3.38;;;;;;;;;;4992667;28;20489;-71
2023/06/13 08:30:08;;;;;;;5.65;3.00;;;;;;;;;;4993378;28;20030;-71
2023/06/13 08:32:34;;;;;;;5.05;3.00;;;;;;;;;;4993651;28;20415;-71
2023/06/13 08:35:01;;;;;;;5.63;3.28;;;;;;;;;;4992003;28;20046;-70
2023/06/13 08:37:28;;;;;;;7.30;3.20;;;;;;;;;;4992619;28;20038;-71
2023/06/13 08:39:54;;;;;;;6.15;3.08;;;;;;;;;;4992513;28;20129;-73
2023/06/13 08:42:20;;;;;;;5.78;2.90;;;;;;;;;;4992215;28;20036;-72
2023/06/13 08:44:47;;;;;;;4.47;2.72;;;;;;;;;;4993244;28;20096;-72
2023/06/13 08:47:13;;;;;;;10.98;3.42;;;;;;;;;;4993462;28;20033;-72
2023/06/13 08:49:39;;;;;;;5.47;2.85;;;;;;;;;;4992801;28;20085;-72
2023/06/13 08:52:12;;;;;;;6.22;2.95;;;;;;;;;;4992666;28;20492;-72
2023/06/13 08:54:42;;;;;;;4.82;2.20;;;;;;;;;;4992557;28;20384;-71
2023/06/13 08:57:12;;;;;;;5.43;2.13;;;;;;;;;;4993038;28;20108;-73
2023/06/13 08:59:42;;;;;;;3.38;2.20;;;;;;;;;;4993137;28;20018;-71
2023/06/13 09:02:10;;;;;;;3.70;2.13;;;;;;;;;;4992960;28;20049;-70
2023/06/13 09:04:38;;;;;;;5.10;2.60;;;;;;;;;;4992538;28;20019;-71
2023/06/13 09:07:04;;;;;;;7.07;2.78;;;;;;;;;;4991974;28;20041;-71
2023/06/13 09:09:31;;;;;;;6.90;3.00;;;;;;;;;;4992353;28;20164;-71
2023/06/13 09:11:58;;;;;;;3.47;2.53;;;;;;;;;;4992409;28;20034;-71
2023/06/13 09:14:24;;;;;;;5.88;2.22;;;;;;;;;;4992521;28;20058;-72
2023/06/13 09:16:53;;;;;;;4.60;2.47;;;;;;;;;;4990617;28;20078;-69
2023/06/13 09:19:19;;;;;;;2.60;1.90;;;;;;;;;;4992266;28;20026;-72
2023/06/13 09:21:45;;;;;;;4.93;2.20;;;;;;;;;;4992093;28;20400;-72
2023/06/13 09:24:12;;;;;;;4.22;2.40;;;;;;;;;;4991941;28;20019;-74
2023/06/13 09:26:41;;;;;;;3.55;2.20;;;;;;;;;;4992929;28;20042;-70
2023/06/13 09:29:07;;;;;;;4.28;2.20;;;;;;;;;;4991276;28;20030;-71
2023/06/13 09:31:39;;;;;;;4.82;2.40;;;;;;;;;;4991358;28;20038;-71
2023/06/13 09:34:08;;;;;;;3.03;2.40;;;;;;;;;;4995202;28;20041;-71
2023/06/13 09:36:35;;;;;;;4.32;2.53;;;;;;;;;;4994364;28;20551;-71
2023/06/13 09:39:03;;;;;;;3.22;2.50;;;;;;;;;;4994983;28;20038;-72
2023/06/13 09:41:31;;;;;;;3.72;2.38;;;;;;;;;;4994858;28;20038;-71
2023/06/13 09:44:01;;;;;;;3.22;2.10;;;;;;;;;;4992552;28;20062;-70
2023/06/13 09:46:28;;;;;;;5.55;2.30;;;;;;;;;;4992106;28;20049;-70
2023/06/13 09:48:53;;;;;;;7.85;3.75;;;;;;;;;;4990890;28;20421;-70
2023/06/13 09:51:21;;;;;;;6.07;2.47;;;;;;;;;;4991032;28;20038;-72
2023/06/13 09:53:47;;;;;;;4.45;2.50;;;;;;;;;;4994412;28;20110;-71
2023/06/13 09:56:12;;;;;;;4.80;2.50;;;;;;;;;;4995232;28;20639;-71
2023/06/13 09:58:40;;;;;;;5.55;2.70;;;;;;;;;;4996543;28;20373;-72
2023/06/13 10:01:12;;;;;;;3.33;2.30;;;;;;;;;;4996028;28;20049;-71
2023/06/13 10:03:38;;;;;;;4.90;2.35;;;;;;;;;;4994911;28;20061;-71
2023/06/13 10:06:04;;;;;;;3.83;2.72;;;;;;;;;;4995914;28;20453;-71
2023/06/13 10:08:31;;;;;;;4.60;2.33;;;;;;;;;;4996166;28;20030;-71
2023/06/13 10:11:02;;;;;;;3.55;2.67;;;;;;;;;;4995862;28;20030;-71
2023/06/13 10:13:31;;;;;;;3.17;2.50;;;;;;;;;;4996070;28;20041;-72
2023/06/13 10:16:04;;;;;;;3.97;2.38;;;;;;;;;;4995419;28;20037;-70
2023/06/13 10:18:37;;;;;;;7.05;3.88;;;;;;;;;;4994933;28;20480;-71
2023/06/13 10:21:04;;;;;;;4.97;3.38;;;;;;;;;;4994688;28;20088;-71
2023/06/13 10:23:36;;;;;;;9.80;4.07;;;;;;;;;;4992787;28;20031;-71
2023/06/13 10:26:08;;;;;;;11.32;3.90;;;;;;;;;;4994574;28;20556;-72
2023/06/13 10:29:06;;;;;;;7.88;3.58;;;;;;;;;;4989722;28;20105;-70
2023/06/13 10:31:56;;;;;;;7.53;4.00;;;;;;;;;;4991051;28;20070;-71
2023/06/13 10:34:25;;;;;;;5.85;3.60;;;;;;;;;;4995135;28;20038;-71
2023/06/13 10:37:38;;;;;;;8.13;3.65;;;;;;;;;;4993216;28;20034;-70
2023/06/13 10:40:38;;;;;;;9.70;3.85;;;;;;;;;;4975201;28;20027;-71
2023/06/13 10:43:23;;;;;;;10.35;5.00;;;;;;;;;;4975114;28;20488;-71
2023/06/13 10:45:52;;;;;;;7.05;3.78;;;;;;;;;;4989083;28;20076;-72
2023/06/13 10:48:31;;;;;;;8.10;4.13;;;;;;;;;;4994819;28;20412;-72
2023/06/13 10:50:58;;;;;;;11.95;3.70;;;;;;;;;;4993760;28;20157;-72
2023/06/13 10:53:26;;;;;;;7.40;4.25;;;;;;;;;;4994838;28;20432;-71
2023/06/13 10:56:00;;;;;;;10.85;3.53;;;;;;;;;;4991399;28;20121;-71
2023/06/13 10:58:27;;;;;;;8.23;4.07;;;;;;;;;;4994756;28;20035;-72
2023/06/13 11:00:54;;;;;;;7.25;3.97;;;;;;;;;;4994481;28;20026;-72
2023/06/13 11:03:28;;;;;;;9.32;3.78;;;;;;;;;;4994823;28;20038;-73
2023/06/13 11:05:53;;;;;;;11.95;3.70;;;;;;;;;;4993812;28;20057;-71
2023/06/13 11:08:24;;;;;;;7.47;3.72;;;;;;;;;;4994395;28;20026;-72
2023/06/13 11:10:51;;;;;;;11.82;3.92;;;;;;;;;;4994988;28;20042;-72
2023/06/13 11:13:22;;;;;;;8.23;3.40;;;;;;;;;;4994283;28;20037;-73
2023/06/13 11:15:50;;;;;;;9.73;4.60;;;;;;;;;;4994540;28;20057;-72
2023/06/13 11:18:19;;;;;;;9.43;4.25;;;;;;;;;;4992996;28;20030;-72
2023/06/13 11:20:49;;;;;;;8.63;4.35;;;;;;;;;;4994334;28;20144;-72
2023/06/13 11:23:21;;;;;;;7.85;4.45;;;;;;;;;;4993357;28;20484;-73
2023/06/13 11:25:50;;;;;;;5.07;3.35;;;;;;;;;;4994142;28;20392;-72
2023/06/13 11:28:18;;;;;;;6.07;3.80;;;;;;;;;;4993980;28;20034;-72
2023/06/13 11:30:47;;;;;;;8.02;3.33;;;;;;;;;;4993101;28;20038;-71
2023/06/13 11:33:13;;;;;;;8.48;4.00;;;;;;;;;;4993333;28;20089;-73
2023/06/13 11:35:47;;;;;;;19.73;9.32;;;;;;;;;;4994661;28;20455;-72
2023/06/13 11:38:21;;;;;;;7.07;3.72;;;;;;;;;;4994552;28;20479;-71
2023/06/13 11:40:54;;;;;;;8.48;4.07;;;;;;;;;;4994546;28;20090;-72
2023/06/13 11:43:20;;;;;;;;;;;;;;;;;;4994704;28;20045;-72
2023/06/13 11:45:47;;;;;;;5.60;3.70;;;;;;;;;;4994301;28;19964;-71
2023/06/13 11:48:22;;;;;;;10.63;4.63;;;;;;;;;;4994162;28;20039;-72
2023/06/13 11:50:48;;;;;;;11.07;4.35;;;;;;;;;;4994258;28;20042;-72
2023/06/13 11:53:15;;;;;;;9.20;5.10;;;;;;;;;;4993928;28;20105;-73
2023/06/13 11:55:41;;;;;;;8.40;4.68;;;;;;;;;;4993912;28;20484;-72
2023/06/13 11:58:08;;;;;;;10.35;4.35;;;;;;;;;;4993912;28;20037;-72
2023/06/13 12:00:53;;;;;;;4.68;3.45;;;;;;;;;;4993268;28;20587;-73
2023/06/13 12:03:23;;;;;;;9.63;4.50;;;;;;;;;;4994386;28;20056;-72
2023/06/13 12:05:50;;;;;;;6.03;4.18;;;;;;;;;;4994329;28;20046;-74
2023/06/13 12:08:16;;;;;;;7.18;4.40;;;;;;;;;;4993910;28;20061;-75
2023/06/13 12:10:51;;;;;;;8.07;4.13;;;;;;;;;;4994083;28;20050;-72
2023/06/13 12:13:18;;;;;;;4.97;3.30;;;;;;;;;;4993722;28;20500;-73
2023/06/13 12:15:44;;;;;;;5.35;2.92;;;;;;;;;;4993828;28;20038;-72
2023/06/13 12:18:09;;;;;;;4.75;3.10;;;;;;;;;;4991241;28;20041;-73
2023/06/13 12:20:53;;;;;;;7.82;3.15;;;;;;;;;;4993744;28;20023;-73
2023/06/13 12:23:20;;;;;;;7.20;3.67;;;;;;;;;;5007883;28;20400;-73
2023/06/13 12:25:46;;;;;;;9.07;3.50;;;;;;;;;;4995557;28;20034;-73
2023/06/13 12:28:15;;;;;;;7.78;3.38;;;;;;;;;;5012610;28;20034;-73
2023/06/13 12:30:43;;;;;;;6.05;3.20;;;;;;;;;;5012693;28;20104;-74
2023/06/13 12:33:15;;;;;;;6.95;4.28;;;;;;;;;;5012920;28;20117;-71
2023/06/13 12:35:51;;;;;;;6.85;3.30;;;;;;;;;;4990597;28;20499;-72
2023/06/13 12:38:26;;;;;;;6.47;3.55;;;;;;;;;;4993431;28;20125;-72
2023/06/13 12:40:55;;;;;;;10.57;4.22;;;;;;;;;;4992382;28;20481;-72
2023/06/13 12:43:25;;;;;;;7.60;4.10;;;;;;;;;;4993462;28;20120;-73
2023/06/13 12:45:51;;;;;;;10.45;5.50;;;;;;;;;;4993477;28;20050;-72
2023/06/13 12:48:18;;;;;;;6.47;3.60;;;;;;;;;;4993247;28;20393;-72
2023/06/13 12:50:46;;;;;;;5.63;2.72;;;;;;;;;;4993464;28;20050;-72
2023/06/13 12:53:12;;;;;;;10.43;3.78;;;;;;;;;;4993038;28;20437;-73
2023/06/13 12:55:39;;;;;;;4.53;2.75;;;;;;;;;;4992655;28;20031;-72
2023/06/13 12:58:26;;;;;;;5.15;2.80;;;;;;;;;;4993371;28;20117;-71
2023/06/13 13:00:53;;;;;;;5.95;3.03;;;;;;;;;;4993506;28;20045;-72
2023/06/13 13:03:20;;;;;;;7.30;3.33;;;;;;;;;;4992424;28;20163;-71
2023/06/13 13:05:46;;;;;;;3.90;2.88;;;;;;;;;;4993112;28;20081;-72
2023/06/13 13:08:12;;;;;;;7.90;2.88;;;;;;;;;;4992985;28;20038;-72
2023/06/13 13:10:39;;;;;;;5.20;2.47;;;;;;;;;;4993080;28;20044;-74
2023/06/13 13:13:07;;;;;;;6.25;2.67;;;;;;;;;;4993048;28;20032;-73
2023/06/13 13:15:33;;;;;;;3.92;2.67;;;;;;;;;;4993615;28;20054;-74
2023/06/13 13:18:00;;;;;;;6.57;2.30;;;;;;;;;;4997936;28;20084;-72
2023/06/13 13:20:26;;;;;;;7.45;2.30;;;;;;;;;;4998070;28;20041;-74
2023/06/13 13:22:52;;;;;;;6.45;2.80;;;;;;;;;;4992791;28;20493;-73
2023/06/13 13:25:19;;;;;;;2.83;1.98;;;;;;;;;;4994265;28;20110;-73
2023/06/13 13:27:47;;;;;;;6.43;2.67;;;;;;;;;;4990807;28;20049;-72
2023/06/13 13:30:17;;;;;;;3.30;2.67;;;;;;;;;;4991213;28;20049;-72
2023/06/13 13:32:44;;;;;;;3.25;2.40;;;;;;;;;;4992751;28;20046;-72
2023/06/13 13:35:10;;;;;;;4.65;3.08;;;;;;;;;;4992799;28;20125;-72
2023/06/13 13:37:36;;;;;;;5.20;2.60;;;;;;;;;;4992338;28;20033;-71
2023/06/13 13:40:04;;;;;;;5.30;2.97;;;;;;;;;;4992388;28;20057;-71
2023/06/13 13:42:36;;;;;;;4.85;2.50;;;;;;;;;;4992211;28;20068;-72
2023/06/13 13:45:06;;;;;;;5.38;2.58;;;;;;;;;;4992250;28;20046;-71
2023/06/13 13:47:34;;;;;;;4.95;2.60;;;;;;;;;;4991714;28;20040;-70
2023/06/13 13:50:01;;;;;;;7.13;2.70;;;;;;;;;;4992867;28;20074;-71
2023/06/13 13:52:27;;;;;;;4.22;2.20;;;;;;;;;;4991183;28;20030;-71
2023/06/13 13:54:55;;;;;;;4.40;2.38;;;;;;;;;;4990953;28;20149;-72
2023/06/13 13:57:21;;;;;;;3.67;2.30;;;;;;;;;;4992238;28;20038;-72
2023/06/13 13:59:49;;;;;;;4.85;2.30;;;;;;;;;;4992120;28;20462;-73
2023/06/13 14:02:15;;;;;;;4.30;2.15;;;;;;;;;;4992144;28;20108;-74
2023/06/13 14:04:41;;;;;;;4.47;2.60;;;;;;;;;;4986257;28;20026;-74
2023/06/13 14:07:07;;;;;;;5.32;2.13;;;;;;;;;;4988917;28;20106;-76
2023/06/13 14:09:33;;;;;;;4.45;2.40;;;;;;;;;;4982254;28;20041;-74
2023/06/13 14:11:59;;;;;;;3.38;2.35;;;;;;;;;;4988296;28;20069;-73
2023/06/13 14:14:25;;;;;;;4.40;2.63;;;;;;;;;;4990521;28;20548;-74
2023/06/13 14:16:52;;;;;;;3.70;2.15;;;;;;;;;;4987691;28;20488;-74
2023/06/13 14:19:18;;;;;;;4.50;2.35;;;;;;;;;;4988612;28;20033;-73
2023/06/13 14:21:43;;;;;;;5.53;2.15;;;;;;;;;;4988981;28;20054;-73
2023/06/13 14:24:11;;;;;;;4.20;2.30;;;;;;;;;;5019932;28;20117;-73
2023/06/13 14:26:38;;;;;;;3.13;2.03;;;;;;;;;;4992642;28;20092;-74
2023/06/13 14:29:04;;;;;;;3.20;2.35;;;;;;;;;;4990701;28;20022;-74
2023/06/13 14:31:30;;;;;;;3.42;2.20;;;;;;;;;;4989522;28;20030;-73
2023/06/13 14:33:57;;;;;;;4.78;2.00;;;;;;;;;;4989195;28;20030;-72
2023/06/13 14:36:23;;;;;;;3.25;2.10;;;;;;;;;;4988117;28;20145;-73
2023/06/13 14:38:48;;;;;;;6.68;2.28;;;;;;;;;;4989032;28;20126;-73
2023/06/13 14:41:14;;;;;;;4.80;2.30;;;;;;;;;;4992752;28;20189;-73
2023/06/13 14:43:40;;;;;;;5.15;2.17;;;;;;;;;;4994748;28;20034;-72